Time;durP1;ratioP1;P1;durP2;ratioP2;P2;SDS_P1;SDS_P2;PMS_P1;PMS_P2;Temp;Humidity;BMP_temperature;BMP_pressure;BME280_temperature;BME280_humidity;BME280_pressure;Samples;Min_cycle;Max_cycle;Signal;HPM_P1;HPM_P2
2021/01/16 06:01:49;;;;;;;;;;;;;;;;;;5064972;28;20381;-56
2021/01/16 06:04:15;;;;;;;;;;;;;;;;;;5057967;28;19971;-56
2021/01/16 06:06:41;;;;;;;1.08;0.43;;;;;;;;;;5046858;28;19920;-54
2021/01/16 06:09:13;;;;;;;0.10;0.10;;;;;;;;;;5048212;28;20029;-57
2021/01/16 06:11:44;;;;;;;7.03;1.10;;;;;;;;;;5051207;28;20718;-56
2021/01/16 06:14:12;;;;;;;0.55;0.30;;;;;;;;;;5050759;28;20055;-56
2021/01/16 06:16:51;;;;;;;0.57;0.57;;;;;;;;;;5048872;28;20040;-56
2021/01/16 06:19:19;;;;;;;6.18;1.00;;;;;;;;;;5048836;28;20426;-57
2021/01/16 06:21:45;;;;;;;0.20;0.20;;;;;;;;;;5046893;28;20035;-55
2021/01/16 06:24:14;;;;;;;1.13;0.40;;;;;;;;;;5047259;28;20041;-55
2021/01/16 06:26:42;;;;;;;4.25;2.15;;;;;;;;;;5050893;28;20026;-57
2021/01/16 06:29:14;;;;;;;3.30;0.35;;;;;;;;;;5048659;28;20048;-54
2021/01/16 06:31:49;;;;;;;0.25;0.15;;;;;;;;;;5055652;28;20604;-56
2021/01/16 06:34:27;;;;;;;2.05;0.40;;;;;;;;;;5047751;28;20419;-56
2021/01/16 06:36:54;;;;;;;2.15;0.52;;;;;;;;;;5046236;28;20398;-56
2021/01/16 06:39:23;;;;;;;3.85;1.35;;;;;;;;;;5042571;28;20029;-56
2021/01/16 06:41:54;;;;;;;0.20;0.20;;;;;;;;;;5059471;28;20036;-55
2021/01/16 06:44:20;;;;;;;0.68;0.68;;;;;;;;;;5050040;28;20029;-54
2021/01/16 06:46:50;;;;;;;1.92;0.50;;;;;;;;;;5048545;28;20028;-57
2021/01/16 06:49:18;;;;;;;0.17;0.17;;;;;;;;;;5047919;28;20033;-57
2021/01/16 06:51:44;;;;;;;0.10;0.10;;;;;;;;;;5046744;28;20064;-55
2021/01/16 06:54:10;;;;;;;0.20;0.20;;;;;;;;;;5047057;28;20040;-55
2021/01/16 06:56:38;;;;;;;8.93;0.40;;;;;;;;;;5050508;28;20530;-56
2021/01/16 06:59:12;;;;;;;2.80;0.30;;;;;;;;;;5048239;28;20437;-55
2021/01/16 07:01:38;;;;;;;9.40;1.10;;;;;;;;;;5036420;28;20057;-56
2021/01/16 07:04:04;;;;;;;0.10;0.10;;;;;;;;;;5030427;28;20025;-55
2021/01/16 07:06:44;;;;;;;2.10;0.68;;;;;;;;;;5030924;28;20507;-55
2021/01/16 07:09:12;;;;;;;0.20;0.20;;;;;;;;;;5031991;28;20104;-56
2021/01/16 07:11:48;;;;;;;0.20;0.20;;;;;;;;;;5032430;28;20037;-52
2021/01/16 07:14:16;;;;;;;0.20;0.20;;;;;;;;;;5031886;28;20041;-60
2021/01/16 07:16:43;;;;;;;4.82;1.42;;;;;;;;;;5030256;28;20025;-58
2021/01/16 07:19:09;;;;;;;5.97;1.05;;;;;;;;;;5030154;28;20048;-57
2021/01/16 07:21:40;;;;;;;0.30;0.30;;;;;;;;;;5030511;28;20388;-56
2021/01/16 07:24:08;;;;;;;2.67;0.68;;;;;;;;;;5032722;28;20475;-58
2021/01/16 07:26:36;;;;;;;0.38;0.38;;;;;;;;;;5031257;28;20039;-56
2021/01/16 07:29:04;;;;;;;0.88;0.10;;;;;;;;;;5030535;28;20020;-56
2021/01/16 07:31:34;;;;;;;0.10;0.10;;;;;;;;;;5030246;28;20030;-56
2021/01/16 07:34:01;;;;;;;3.20;0.57;;;;;;;;;;5030248;28;20022;-57
2021/01/16 07:36:28;;;;;;;1.52;1.00;;;;;;;;;;5034617;28;20037;-57
2021/01/16 07:38:54;;;;;;;2.85;0.52;;;;;;;;;;5037354;28;20026;-56
2021/01/16 07:41:22;;;;;;;0.10;0.10;;;;;;;;;;5036006;28;20045;-58
2021/01/16 07:44:11;;;;;;;1.23;0.65;;;;;;;;;;5039064;28;20017;-59
2021/01/16 07:46:42;;;;;;;0.25;0.25;;;;;;;;;;5036571;28;20067;-58
2021/01/16 07:49:08;;;;;;;0.10;0.10;;;;;;;;;;5039349;28;20025;-59
2021/01/16 07:51:35;;;;;;;0.30;0.22;;;;;;;;;;5037882;28;20025;-59
2021/01/16 07:54:03;;;;;;;6.97;0.45;;;;;;;;;;5042620;28;20553;-59
2021/01/16 07:56:44;;;;;;;2.83;0.40;;;;;;;;;;5041132;28;20053;-61
2021/01/16 07:59:14;;;;;;;3.63;0.47;;;;;;;;;;5030384;28;20108;-58
2021/01/16 08:01:41;;;;;;;4.28;0.32;;;;;;;;;;5029299;28;20124;-59
2021/01/16 08:04:19;;;;;;;0.10;0.10;;;;;;;;;;5034276;28;20104;-59
2021/01/16 08:07:04;;;;;;;0.10;0.10;;;;;;;;;;5038297;28;20079;-57
2021/01/16 08:09:49;;;;;;;0.20;0.20;;;;;;;;;;5036375;28;20038;-58
2021/01/16 08:12:16;;;;;;;0.10;0.10;;;;;;;;;;5029838;28;20034;-57
2021/01/16 08:14:42;;;;;;;2.65;0.35;;;;;;;;;;5030009;28;20486;-65
2021/01/16 08:17:18;;;;;;;0.10;0.10;;;;;;;;;;5030745;28;20020;-70
2021/01/16 08:19:47;;;;;;;0.00;0.00;;;;;;;;;;5029095;28;20033;-59
2021/01/16 08:22:17;;;;;;;0.10;0.10;;;;;;;;;;5038227;28;20116;-59
2021/01/16 08:25:10;;;;;;;0.75;0.30;;;;;;;;;;5028367;28;20033;-62
2021/01/16 08:27:37;;;;;;;0.10;0.10;;;;;;;;;;5024592;28;20561;-64
2021/01/16 08:30:08;;;;;;;0.03;0.03;;;;;;;;;;5030268;28;20123;-61
2021/01/16 08:32:51;;;;;;;0.10;0.10;;;;;;;;;;5029534;28;20176;-60
2021/01/16 08:35:22;;;;;;;9.20;0.30;;;;;;;;;;5029125;28;20108;-61
2021/01/16 08:37:48;;;;;;;0.10;0.10;;;;;;;;;;5028728;28;20029;-60
2021/01/16 08:40:30;;;;;;;4.22;0.40;;;;;;;;;;5028822;28;20510;-60
2021/01/16 08:42:57;;;;;;;0.25;0.20;;;;;;;;;;5027839;28;20025;-61
2021/01/16 08:45:24;;;;;;;0.10;0.10;;;;;;;;;;5022792;28;20087;-60
2021/01/16 08:47:55;;;;;;;0.10;0.10;;;;;;;;;;5031196;28;20028;-60
2021/01/16 08:50:21;;;;;;;0.25;0.20;;;;;;;;;;5028698;28;20033;-60
2021/01/16 08:52:47;;;;;;;0.45;0.17;;;;;;;;;;5028433;28;20395;-60
2021/01/16 08:55:13;;;;;;;0.20;0.20;;;;;;;;;;5028650;28;20461;-61
2021/01/16 08:57:40;;;;;;;0.10;0.10;;;;;;;;;;5028803;28;20066;-61
2021/01/16 09:00:15;;;;;;;1.27;0.38;;;;;;;;;;5030291;28;20045;-61
2021/01/16 09:02:41;;;;;;;;;;;;;;;;;;5030833;28;20037;-61
2021/01/16 09:05:07;;;;;;;;;;;;;;;;;;5028910;28;19999;-60
2021/01/16 09:07:33;;;;;;;;;;;;;;;;;;5029827;28;20298;-60
2021/01/16 09:09:59;;;;;;;0.10;0.10;;;;;;;;;;5028307;28;19917;-61
2021/01/16 09:12:39;;;;;;;0.00;0.00;;;;;;;;;;5036794;28;20052;-60
2021/01/16 09:15:18;;;;;;;0.00;0.00;;;;;;;;;;5030028;28;20052;-61
2021/01/16 09:18:02;;;;;;;0.00;0.00;;;;;;;;;;5031229;28;20137;-60
2021/01/16 09:20:32;;;;;;;0.08;0.08;;;;;;;;;;5030848;28;20077;-60
2021/01/16 09:22:58;;;;;;;0.00;0.00;;;;;;;;;;5028289;28;20119;-61
2021/01/16 09:25:25;;;;;;;0.30;0.30;;;;;;;;;;5027762;28;20033;-61
2021/01/16 09:27:52;;;;;;;0.73;0.45;;;;;;;;;;5028121;28;20037;-61
2021/01/16 09:30:27;;;;;;;0.10;0.10;;;;;;;;;;5028633;28;20034;-60
2021/01/16 09:32:54;;;;;;;2.53;0.08;;;;;;;;;;5027654;28;20025;-60
2021/01/16 09:35:39;;;;;;;0.60;0.10;;;;;;;;;;5029992;28;20116;-60
2021/01/16 09:38:06;;;;;;;;;;;;;;;;;;5028435;28;20025;-61
2021/01/16 09:40:32;;;;;;;;;;;;;;;;;;5028353;28;20277;-61
2021/01/16 09:42:58;;;;;;;;;;;;;;;;;;5028504;28;19913;-60
2021/01/16 09:45:44;;;;;;;0.03;0.03;;;;;;;;;;5026953;28;19932;-60
2021/01/16 09:48:30;;;;;;;0.70;0.20;;;;;;;;;;5029830;28;20418;-61
2021/01/16 09:50:57;;;;;;;0.00;0.00;;;;;;;;;;5027497;28;20041;-60
2021/01/16 09:53:25;;;;;;;0.00;0.00;;;;;;;;;;5028825;28;20029;-60
2021/01/16 09:55:53;;;;;;;0.10;0.10;;;;;;;;;;5027655;28;20034;-60
2021/01/16 09:58:39;;;;;;;0.20;0.20;;;;;;;;;;5027541;28;20448;-60
2021/01/16 10:01:15;;;;;;;0.35;0.20;;;;;;;;;;5025069;28;20049;-60
2021/01/16 10:03:41;;;;;;;;;;;;;;;;;;5018179;28;20026;-61
2021/01/16 10:06:07;;;;;;;;;;;;;;;;;;5020834;28;19909;-60
2021/01/16 10:08:33;;;;;;;;;;;;;;;;;;5018218;28;19913;-61
2021/01/16 10:11:00;;;;;;;0.17;0.17;;;;;;;;;;5013375;28;19917;-60
2021/01/16 10:13:30;;;;;;;0.00;0.00;;;;;;;;;;5012615;28;20548;-60
2021/01/16 10:16:00;;;;;;;0.00;0.00;;;;;;;;;;5010411;28;20511;-61
2021/01/16 10:18:28;;;;;;;0.00;0.00;;;;;;;;;;5011970;28;20034;-60
2021/01/16 10:21:03;;;;;;;0.20;0.10;;;;;;;;;;5010631;28;20623;-60
2021/01/16 10:23:29;;;;;;;;;;;;;;;;;;5012392;28;20034;-60
2021/01/16 10:25:55;;;;;;;;;;;;;;;;;;5012545;28;20373;-61
2021/01/16 10:28:21;;;;;;;;;;;;;;;;;;5012564;28;19913;-61
2021/01/16 10:30:47;;;;;;;;;;;;;;;;;;5011395;28;20388;-60
2021/01/16 10:33:13;;;;;;;;;;;;;;;;;;5010903;28;19917;-61
2021/01/16 10:35:39;;;;;;;;;;;;;;;;;;5015033;28;19913;-61
2021/01/16 10:38:06;;;;;;;1.48;0.20;;;;;;;;;;5016196;28;20342;-61
2021/01/16 10:40:32;;;;;;;0.10;0.10;;;;;;;;;;5015437;28;20030;-61
2021/01/16 10:42:59;;;;;;;0.00;0.00;;;;;;;;;;5016163;28;20040;-61
2021/01/16 10:45:30;;;;;;;0.00;0.00;;;;;;;;;;5014284;28;20499;-61
2021/01/16 10:47:57;;;;;;;0.32;0.32;;;;;;;;;;5015076;28;20079;-61
2021/01/16 10:50:24;;;;;;;0.52;0.10;;;;;;;;;;5016441;28;20426;-61
2021/01/16 10:53:03;;;;;;;0.00;0.00;;;;;;;;;;5017372;28;20084;-61
2021/01/16 10:55:50;;;;;;;0.13;0.10;;;;;;;;;;5015952;28;20033;-61
2021/01/16 10:58:22;;;;;;;0.00;0.00;;;;;;;;;;5016667;28;20025;-60
2021/01/16 11:00:53;;;;;;;0.20;0.08;;;;;;;;;;5014810;28;20538;-60
2021/01/16 11:03:19;;;;;;;0.10;0.10;;;;;;;;;;5022814;28;20068;-61
2021/01/16 11:05:47;;;;;;;0.00;0.00;;;;;;;;;;5026423;28;20026;-60
2021/01/16 11:08:19;;;;;;;0.00;0.00;;;;;;;;;;5023033;28;20112;-61
2021/01/16 11:10:47;;;;;;;0.00;0.00;;;;;;;;;;5029759;28;20033;-55
2021/01/16 11:13:17;;;;;;;0.43;0.13;;;;;;;;;;5028831;28;20037;-54
2021/01/16 11:15:44;;;;;;;0.00;0.00;;;;;;;;;;5030480;28;20471;-53
2021/01/16 11:18:25;;;;;;;0.00;0.00;;;;;;;;;;5032722;28;20068;-54
2021/01/16 11:20:56;;;;;;;0.00;0.00;;;;;;;;;;5030646;28;20049;-56
2021/01/16 11:23:30;;;;;;;0.00;0.00;;;;;;;;;;5030137;28;20022;-56
2021/01/16 11:25:57;;;;;;;0.10;0.10;;;;;;;;;;5030301;28;20029;-56
2021/01/16 11:28:26;;;;;;;0.93;0.00;;;;;;;;;;5030714;28;20025;-56
2021/01/16 11:31:03;;;;;;;0.00;0.00;;;;;;;;;;5030437;28;20025;-51
2021/01/16 11:33:30;;;;;;;0.10;0.05;;;;;;;;;;5029323;28;20057;-55
2021/01/16 11:36:13;;;;;;;0.03;0.03;;;;;;;;;;5032529;28;20036;-54
2021/01/16 11:38:46;;;;;;;0.00;0.00;;;;;;;;;;5030476;28;20494;-57
2021/01/16 11:41:12;;;;;;;0.00;0.00;;;;;;;;;;5029096;28;20041;-53
2021/01/16 11:43:39;;;;;;;1.13;0.20;;;;;;;;;;5029584;28;20486;-55
2021/01/16 11:46:06;;;;;;;0.00;0.00;;;;;;;;;;5029487;28;20033;-55
2021/01/16 11:48:33;;;;;;;0.00;0.00;;;;;;;;;;5029387;28;20041;-52
2021/01/16 11:51:06;;;;;;;0.00;0.00;;;;;;;;;;5031855;28;20037;-57
2021/01/16 11:53:33;;;;;;;0.25;0.25;;;;;;;;;;5032491;28;20103;-53
2021/01/16 11:56:06;;;;;;;0.00;0.00;;;;;;;;;;5029046;28;20021;-55
2021/01/16 11:58:36;;;;;;;0.00;0.00;;;;;;;;;;5029047;28;20052;-54
2021/01/16 12:01:02;;;;;;;0.00;0.00;;;;;;;;;;5028741;28;20096;-56
2021/01/16 12:03:28;;;;;;;0.00;0.00;;;;;;;;;;5029405;28;20030;-56
2021/01/16 12:05:55;;;;;;;0.00;0.00;;;;;;;;;;5032333;28;20033;-55
2021/01/16 12:08:24;;;;;;;0.05;0.00;;;;;;;;;;5020369;28;20507;-53
2021/01/16 12:10:51;;;;;;;0.00;0.00;;;;;;;;;;5024633;28;20051;-55
2021/01/16 12:13:18;;;;;;;1.23;0.25;;;;;;;;;;5022992;28;20029;-52
2021/01/16 12:15:44;;;;;;;0.00;0.00;;;;;;;;;;5027446;28;20029;-52
2021/01/16 12:18:12;;;;;;;0.45;0.10;;;;;;;;;;5029812;28;20088;-56
2021/01/16 12:20:38;;;;;;;0.00;0.00;;;;;;;;;;5023167;28;20033;-56
2021/01/16 12:23:05;;;;;;;0.52;0.00;;;;;;;;;;5026300;28;20482;-54
2021/01/16 12:25:32;;;;;;;0.00;0.00;;;;;;;;;;5023713;28;20411;-52
2021/01/16 12:27:58;;;;;;;0.00;0.00;;;;;;;;;;5026472;28;20056;-58
2021/01/16 12:30:32;;;;;;;0.00;0.00;;;;;;;;;;5027871;28;20048;-55
2021/01/16 12:32:59;;;;;;;0.00;0.00;;;;;;;;;;5029211;28;20025;-55
2021/01/16 12:35:25;;;;;;;1.52;0.20;;;;;;;;;;5028577;28;20076;-52
2021/01/16 12:37:52;;;;;;;0.03;0.03;;;;;;;;;;5027802;28;20048;-53
2021/01/16 12:40:25;;;;;;;0.00;0.00;;;;;;;;;;5027486;28;20578;-52
2021/01/16 12:42:52;;;;;;;0.00;0.00;;;;;;;;;;5028224;28;20037;-54
2021/01/16 12:45:23;;;;;;;0.00;0.00;;;;;;;;;;5028278;28;20030;-55
2021/01/16 12:47:49;;;;;;;0.00;0.00;;;;;;;;;;5030359;28;20399;-57
2021/01/16 12:50:16;;;;;;;11.60;0.20;;;;;;;;;;5028650;28;20611;-55
2021/01/16 12:52:46;;;;;;;0.00;0.00;;;;;;;;;;5029043;28;20406;-54
2021/01/16 12:55:14;;;;;;;0.05;0.05;;;;;;;;;;5028189;28;20037;-54
2021/01/16 12:57:41;;;;;;;0.00;0.00;;;;;;;;;;5028279;28;20025;-52
2021/01/16 13:00:09;;;;;;;0.00;0.00;;;;;;;;;;5028366;28;20041;-56
2021/01/16 13:02:35;;;;;;;0.00;0.00;;;;;;;;;;5028281;28;20033;-53
2021/01/16 13:05:03;;;;;;;0.00;0.00;;;;;;;;;;5029311;28;20029;-56
2021/01/16 13:07:29;;;;;;;0.00;0.00;;;;;;;;;;5026655;28;20017;-56
2021/01/16 13:09:57;;;;;;;0.00;0.00;;;;;;;;;;5029496;28;20104;-56
2021/01/16 13:12:24;;;;;;;0.30;0.30;;;;;;;;;;5028575;28;20083;-53
2021/01/16 13:14:51;;;;;;;0.00;0.00;;;;;;;;;;5030446;28;20028;-55
2021/01/16 13:17:21;;;;;;;0.47;0.13;;;;;;;;;;5028221;28;20033;-54
2021/01/16 13:19:47;;;;;;;0.00;0.00;;;;;;;;;;5025490;28;20608;-55
2021/01/16 13:22:21;;;;;;;0.00;0.00;;;;;;;;;;5027313;28;20026;-52
2021/01/16 13:25:08;;;;;;;0.00;0.00;;;;;;;;;;5025388;28;20034;-53
2021/01/16 13:27:36;;;;;;;0.00;0.00;;;;;;;;;;5027781;28;20037;-54
2021/01/16 13:30:07;;;;;;;0.00;0.00;;;;;;;;;;5029571;28;20022;-54
2021/01/16 13:32:34;;;;;;;0.00;0.00;;;;;;;;;;5028494;28;20060;-54
2021/01/16 13:35:01;;;;;;;0.00;0.00;;;;;;;;;;5027763;28;20029;-54
2021/01/16 13:37:29;;;;;;;3.72;0.57;;;;;;;;;;5026354;28;20486;-54
2021/01/16 13:39:57;;;;;;;0.10;0.10;;;;;;;;;;5027411;28;20033;-55
2021/01/16 13:42:31;;;;;;;0.00;0.00;;;;;;;;;;5026905;28;20108;-55
2021/01/16 13:45:01;;;;;;;1.45;0.70;;;;;;;;;;5031791;28;20037;-55
2021/01/16 13:47:29;;;;;;;0.00;0.00;;;;;;;;;;5037342;28;20041;-56
2021/01/16 13:50:14;;;;;;;0.52;0.20;;;;;;;;;;5033550;28;20025;-53
2021/01/16 13:52:40;;;;;;;0.00;0.00;;;;;;;;;;5036311;28;20406;-55
2021/01/16 13:55:17;;;;;;;1.08;0.65;;;;;;;;;;5033983;28;20029;-52
2021/01/16 13:57:44;;;;;;;0.00;0.00;;;;;;;;;;5036876;28;20096;-57
2021/01/16 14:00:16;;;;;;;2.92;0.30;;;;;;;;;;5033880;28;20144;-57
2021/01/16 14:02:49;;;;;;;0.00;0.00;;;;;;;;;;5032073;28;20525;-52
2021/01/16 14:05:20;;;;;;;0.10;0.10;;;;;;;;;;5031812;28;20040;-55
2021/01/16 14:07:47;;;;;;;0.05;0.05;;;;;;;;;;5031902;28;20768;-54
2021/01/16 14:10:23;;;;;;;0.80;0.30;;;;;;;;;;5026137;28;20658;-53
2021/01/16 14:13:04;;;;;;;0.00;0.00;;;;;;;;;;5033181;28;20029;-58
2021/01/16 14:15:30;;;;;;;0.47;0.47;;;;;;;;;;5037246;28;20033;-54
2021/01/16 14:17:56;;;;;;;2.53;0.38;;;;;;;;;;5035859;28;20021;-57
2021/01/16 14:20:30;;;;;;;0.00;0.00;;;;;;;;;;5032766;28;20111;-52
2021/01/16 14:22:56;;;;;;;0.00;0.00;;;;;;;;;;5033633;28;20433;-55
2021/01/16 14:25:25;;;;;;;7.65;1.00;;;;;;;;;;5033832;28;20460;-54
2021/01/16 14:27:51;;;;;;;0.10;0.10;;;;;;;;;;5053715;28;20025;-53
2021/01/16 14:30:27;;;;;;;3.00;0.35;;;;;;;;;;5037645;28;20127;-56
2021/01/16 14:32:56;;;;;;;0.00;0.00;;;;;;;;;;5033084;28;20025;-58
2021/01/16 14:35:22;;;;;;;2.92;0.93;;;;;;;;;;5034714;28;20026;-59
2021/01/16 14:37:54;;;;;;;2.13;1.75;;;;;;;;;;5034157;28;20443;-56
2021/01/16 14:40:27;;;;;;;1.23;0.68;;;;;;;;;;5055492;28;20045;-55
2021/01/16 14:42:58;;;;;;;0.00;0.00;;;;;;;;;;5030940;28;20414;-54
2021/01/16 14:45:24;;;;;;;0.00;0.00;;;;;;;;;;5024764;28;20474;-56
2021/01/16 14:47:50;;;;;;;1.02;0.20;;;;;;;;;;5033266;28;20029;-54
2021/01/16 14:50:16;;;;;;;3.05;1.30;;;;;;;;;;5027257;28;20759;-56
2021/01/16 14:52:43;;;;;;;5.05;2.13;;;;;;;;;;5029896;28;20017;-56
2021/01/16 14:55:13;;;;;;;1.60;0.77;;;;;;;;;;5030111;28;20091;-56
2021/01/16 14:57:44;;;;;;;12.00;3.17;;;;;;;;;;5030205;28;20372;-56
2021/01/16 15:00:26;;;;;;;1.65;0.47;;;;;;;;;;5032018;28;20091;-56
2021/01/16 15:02:59;;;;;;;0.68;0.47;;;;;;;;;;5029493;28;20040;-55
2021/01/16 15:05:44;;;;;;;3.55;1.40;;;;;;;;;;5031251;28;20033;-56
2021/01/16 15:08:13;;;;;;;0.57;0.30;;;;;;;;;;5031443;28;20124;-56
2021/01/16 15:10:49;;;;;;;1.92;0.43;;;;;;;;;;5030477;28;20068;-56
2021/01/16 15:13:17;;;;;;;6.03;0.30;;;;;;;;;;5029978;28;20030;-56
2021/01/16 15:15:45;;;;;;;10.13;1.98;;;;;;;;;;5029813;28;20080;-55
2021/01/16 15:18:11;;;;;;;15.25;2.55;;;;;;;;;;5031896;28;20083;-56
2021/01/16 15:20:38;;;;;;;0.80;0.73;;;;;;;;;;5031629;28;20049;-53
2021/01/16 15:23:05;;;;;;;0.00;0.00;;;;;;;;;;5024738;28;20420;-61
2021/01/16 15:25:32;;;;;;;9.35;3.83;;;;;;;;;;5026009;28;20095;-56
2021/01/16 15:27:58;;;;;;;0.93;0.10;;;;;;;;;;5026347;28;20021;-56
2021/01/16 15:30:26;;;;;;;11.80;0.30;;;;;;;;;;5030446;28;20033;-54
2021/01/16 15:33:05;;;;;;;0.10;0.10;;;;;;;;;;5029409;28;20031;-58
2021/01/16 15:35:42;;;;;;;0.00;0.00;;;;;;;;;;5031708;28;20041;-58
2021/01/16 15:38:09;;;;;;;0.10;0.10;;;;;;;;;;5028571;28;20035;-57
2021/01/16 15:40:36;;;;;;;11.75;1.85;;;;;;;;;;5030242;28;20497;-57
2021/01/16 15:43:06;;;;;;;0.00;0.00;;;;;;;;;;5029148;28;20075;-57
2021/01/16 15:45:34;;;;;;;0.00;0.00;;;;;;;;;;5029054;28;20042;-58
2021/01/16 15:48:05;;;;;;;0.00;0.00;;;;;;;;;;5031284;28;20022;-57
2021/01/16 15:50:33;;;;;;;0.00;0.00;;;;;;;;;;5031565;28;20033;-59
2021/01/16 15:52:59;;;;;;;0.00;0.00;;;;;;;;;;5031076;28;20029;-57
2021/01/16 15:55:26;;;;;;;0.25;0.20;;;;;;;;;;5028960;28;20037;-56
2021/01/16 15:57:53;;;;;;;0.05;0.05;;;;;;;;;;5029785;28;20478;-56
2021/01/16 16:00:20;;;;;;;0.00;0.00;;;;;;;;;;5026369;28;20066;-56
2021/01/16 16:02:47;;;;;;;2.25;0.20;;;;;;;;;;5030505;28;20380;-56
2021/01/16 16:05:14;;;;;;;0.10;0.10;;;;;;;;;;5028046;28;20037;-58
2021/01/16 16:07:41;;;;;;;0.00;0.00;;;;;;;;;;5027015;28;20041;-56
2021/01/16 16:10:08;;;;;;;0.10;0.10;;;;;;;;;;5026936;28;20033;-57
2021/01/16 16:12:34;;;;;;;0.00;0.00;;;;;;;;;;5027858;28;20021;-61
2021/01/16 16:15:00;;;;;;;0.00;0.00;;;;;;;;;;5025314;28;20511;-61
2021/01/16 16:17:26;;;;;;;0.00;0.00;;;;;;;;;;5027646;28;20063;-61
2021/01/16 16:19:52;;;;;;;0.00;0.00;;;;;;;;;;5026998;28;20810;-61
2021/01/16 16:22:18;;;;;;;0.05;0.05;;;;;;;;;;5027089;28;20037;-61
2021/01/16 16:24:44;;;;;;;5.22;1.65;;;;;;;;;;5026344;28;21944;-60
2021/01/16 16:27:10;;;;;;;0.10;0.10;;;;;;;;;;5027427;28;20030;-61
2021/01/16 16:29:37;;;;;;;0.10;0.10;;;;;;;;;;5028079;28;20033;-61
2021/01/16 16:32:07;;;;;;;0.00;0.00;;;;;;;;;;5026788;28;20029;-60
2021/01/16 16:34:33;;;;;;;0.03;0.03;;;;;;;;;;5026298;28;20029;-61
2021/01/16 16:36:59;;;;;;;1.30;0.50;;;;;;;;;;5026549;28;20048;-61
2021/01/16 16:39:25;;;;;;;0.65;0.65;;;;;;;;;;5026608;28;20550;-61
2021/01/16 16:41:51;;;;;;;0.00;0.00;;;;;;;;;;5028498;28;20032;-60
2021/01/16 16:44:17;;;;;;;0.00;0.00;;;;;;;;;;5026741;28;20030;-61
2021/01/16 16:46:44;;;;;;;0.00;0.00;;;;;;;;;;5027136;28;20082;-61
2021/01/16 16:49:10;;;;;;;0.00;0.00;;;;;;;;;;5026514;28;20029;-61
2021/01/16 16:51:36;;;;;;;0.00;0.00;;;;;;;;;;5026433;28;20014;-61
2021/01/16 16:54:02;;;;;;;2.38;0.57;;;;;;;;;;5025255;28;20044;-61
2021/01/16 16:56:28;;;;;;;0.10;0.10;;;;;;;;;;5028371;28;20034;-61
2021/01/16 16:58:54;;;;;;;0.30;0.30;;;;;;;;;;5026919;28;20056;-59
2021/01/16 17:01:20;;;;;;;2.63;0.90;;;;;;;;;;5023625;28;20042;-59
2021/01/16 17:03:47;;;;;;;0.00;0.00;;;;;;;;;;5025704;28;20615;-54
2021/01/16 17:06:13;;;;;;;10.43;1.25;;;;;;;;;;5028907;28;20116;-59
2021/01/16 17:08:43;;;;;;;0.00;0.00;;;;;;;;;;5024625;28;20025;-58
2021/01/16 17:11:09;;;;;;;0.00;0.00;;;;;;;;;;5025574;28;20039;-59
2021/01/16 17:13:35;;;;;;;0.10;0.10;;;;;;;;;;5023843;28;20033;-57
2021/01/16 17:16:01;;;;;;;4.85;0.47;;;;;;;;;;5025418;28;20059;-57
2021/01/16 17:18:28;;;;;;;0.00;0.00;;;;;;;;;;5026169;28;20578;-58
2021/01/16 17:20:54;;;;;;;0.93;0.93;;;;;;;;;;5027691;28;20040;-58
2021/01/16 17:23:20;;;;;;;0.00;0.00;;;;;;;;;;5024875;28;20025;-59
2021/01/16 17:25:46;;;;;;;0.10;0.10;;;;;;;;;;5023481;28;20056;-57
2021/01/16 17:28:12;;;;;;;1.88;1.77;;;;;;;;;;5023748;28;20474;-59
2021/01/16 17:30:38;;;;;;;0.10;0.10;;;;;;;;;;5021656;28;20231;-58
2021/01/16 17:33:05;;;;;;;0.10;0.10;;;;;;;;;;5025037;28;20032;-58
2021/01/16 17:35:31;;;;;;;0.10;0.10;;;;;;;;;;5025107;28;20025;-57
2021/01/16 17:37:58;;;;;;;0.00;0.00;;;;;;;;;;5026488;28;20024;-59
2021/01/16 17:40:24;;;;;;;0.30;0.20;;;;;;;;;;5026535;28;20029;-58
2021/01/16 17:42:51;;;;;;;0.10;0.10;;;;;;;;;;5026232;28;20407;-58
2021/01/16 17:45:17;;;;;;;0.10;0.10;;;;;;;;;;5026175;28;20025;-58
2021/01/16 17:47:47;;;;;;;0.10;0.10;;;;;;;;;;5026069;28;20299;-57
2021/01/16 17:50:14;;;;;;;0.10;0.10;;;;;;;;;;5026131;28;20014;-55
2021/01/16 17:52:40;;;;;;;0.00;0.00;;;;;;;;;;5026706;28;20104;-59
2021/01/16 17:55:06;;;;;;;4.03;2.40;;;;;;;;;;5027032;28;20028;-55
2021/01/16 17:57:33;;;;;;;0.10;0.10;;;;;;;;;;5027918;28;20029;-55
2021/01/16 17:59:59;;;;;;;0.10;0.10;;;;;;;;;;5029794;28;20034;-56
2021/01/16 18:02:25;;;;;;;1.73;1.63;;;;;;;;;;5028639;28;20099;-57
2021/01/16 18:04:51;;;;;;;0.10;0.10;;;;;;;;;;5027584;28;20061;-59
2021/01/16 18:07:18;;;;;;;20.73;3.53;;;;;;;;;;5028237;28;20060;-58
2021/01/16 18:09:44;;;;;;;0.10;0.10;;;;;;;;;;5029089;28;20097;-56
2021/01/16 18:12:11;;;;;;;0.10;0.10;;;;;;;;;;5027503;28;20021;-52
2021/01/16 18:14:37;;;;;;;0.10;0.10;;;;;;;;;;5029587;28;20029;-54
2021/01/16 18:17:03;;;;;;;0.85;0.55;;;;;;;;;;5027881;28;20060;-59
2021/01/16 18:19:29;;;;;;;0.10;0.10;;;;;;;;;;5028404;28;20022;-59
2021/01/16 18:21:57;;;;;;;0.08;0.08;;;;;;;;;;5028182;28;20039;-59
2021/01/16 18:24:24;;;;;;;0.00;0.00;;;;;;;;;;5028658;28;20026;-59
2021/01/16 18:26:51;;;;;;;0.10;0.10;;;;;;;;;;5029698;28;20124;-59
2021/01/16 18:29:17;;;;;;;0.10;0.10;;;;;;;;;;5028223;28;20033;-59
2021/01/16 18:31:43;;;;;;;0.10;0.10;;;;;;;;;;5026729;28;20028;-59
2021/01/16 18:34:11;;;;;;;0.10;0.10;;;;;;;;;;5026658;28;20030;-57
2021/01/16 18:36:44;;;;;;;0.10;0.10;;;;;;;;;;5027606;28;20048;-59
2021/01/16 18:39:11;;;;;;;0.00;0.00;;;;;;;;;;5029587;28;20087;-58
2021/01/16 18:41:38;;;;;;;0.10;0.10;;;;;;;;;;5028359;28;20068;-59
2021/01/16 18:44:07;;;;;;;0.10;0.10;;;;;;;;;;5027461;28;20022;-58
2021/01/16 18:46:34;;;;;;;0.10;0.10;;;;;;;;;;5027482;28;20510;-57
2021/01/16 18:49:00;;;;;;;0.10;0.10;;;;;;;;;;5025922;28;20053;-59
2021/01/16 18:51:26;;;;;;;0.03;0.03;;;;;;;;;;5026725;28;20029;-59
2021/01/16 18:53:53;;;;;;;0.40;0.40;;;;;;;;;;5030793;28;20033;-59
2021/01/16 18:56:20;;;;;;;0.32;0.25;;;;;;;;;;5027053;28;20506;-57
2021/01/16 18:58:47;;;;;;;0.10;0.10;;;;;;;;;;5030337;28;20375;-58
2021/01/16 19:01:13;;;;;;;1.13;1.02;;;;;;;;;;5030445;28;20045;-58
2021/01/16 19:03:39;;;;;;;0.35;0.25;;;;;;;;;;5030565;28;20558;-58
2021/01/16 19:06:05;;;;;;;0.10;0.10;;;;;;;;;;5033277;28;20031;-57
2021/01/16 19:08:31;;;;;;;7.88;2.65;;;;;;;;;;5031447;28;20785;-58
2021/01/16 19:10:58;;;;;;;0.10;0.10;;;;;;;;;;5031999;28;20021;-59
2021/01/16 19:13:24;;;;;;;0.20;0.20;;;;;;;;;;5032644;28;20021;-58
2021/01/16 19:15:50;;;;;;;0.10;0.10;;;;;;;;;;5037513;28;20033;-59
2021/01/16 19:18:16;;;;;;;0.10;0.10;;;;;;;;;;5040049;28;20032;-57
2021/01/16 19:20:45;;;;;;;0.85;0.85;;;;;;;;;;5033141;28;20887;-58
2021/01/16 19:23:12;;;;;;;0.25;0.25;;;;;;;;;;5024215;28;20297;-56
2021/01/16 19:25:38;;;;;;;0.20;0.20;;;;;;;;;;5027267;28;20125;-59
2021/01/16 19:28:04;;;;;;;0.47;0.43;;;;;;;;;;5026862;28;20459;-57
2021/01/16 19:30:31;;;;;;;0.70;0.70;;;;;;;;;;5015961;28;20381;-59
2021/01/16 19:33:00;;;;;;;0.10;0.10;;;;;;;;;;5029912;28;20021;-56
2021/01/16 19:35:27;;;;;;;3.10;0.40;;;;;;;;;;5028747;28;20061;-58
2021/01/16 19:37:53;;;;;;;0.10;0.10;;;;;;;;;;5026271;28;20017;-57
2021/01/16 19:40:21;;;;;;;1.67;0.70;;;;;;;;;;5026716;28;20116;-55
2021/01/16 19:42:49;;;;;;;17.50;2.75;;;;;;;;;;5026861;28;20572;-58
2021/01/16 19:45:15;;;;;;;15.50;1.75;;;;;;;;;;5027320;28;20049;-54
2021/01/16 19:47:48;;;;;;;7.55;2.45;;;;;;;;;;5017215;28;20044;-58
2021/01/16 19:50:15;;;;;;;0.20;0.20;;;;;;;;;;5015815;28;20034;-57
2021/01/16 19:52:41;;;;;;;0.10;0.10;;;;;;;;;;5020679;28;20033;-57
2021/01/16 19:55:09;;;;;;;0.10;0.10;;;;;;;;;;5019855;28;20096;-56
2021/01/16 19:57:36;;;;;;;0.15;0.15;;;;;;;;;;5026449;28;20048;-57
2021/01/16 20:00:03;;;;;;;0.10;0.10;;;;;;;;;;5028203;28;20095;-58
2021/01/16 20:02:31;;;;;;;1.20;0.40;;;;;;;;;;5018044;28;20038;-59
2021/01/16 20:04:57;;;;;;;0.20;0.20;;;;;;;;;;5023337;28;20034;-58
2021/01/16 20:07:23;;;;;;;6.85;0.95;;;;;;;;;;5023426;28;20079;-58
2021/01/16 20:09:49;;;;;;;1.45;0.75;;;;;;;;;;5026947;28;20487;-57
2021/01/16 20:12:15;;;;;;;0.10;0.10;;;;;;;;;;5026556;28;20055;-58
2021/01/16 20:14:41;;;;;;;0.10;0.10;;;;;;;;;;5026507;28;21236;-61
2021/01/16 20:17:08;;;;;;;7.68;1.17;;;;;;;;;;5025857;28;20029;-61
2021/01/16 20:19:34;;;;;;;0.10;0.10;;;;;;;;;;5025514;28;20033;-61
2021/01/16 20:22:00;;;;;;;0.10;0.10;;;;;;;;;;5024873;28;20087;-61
2021/01/16 20:24:26;;;;;;;0.10;0.10;;;;;;;;;;5025371;28;20021;-61
2021/01/16 20:26:53;;;;;;;0.10;0.10;;;;;;;;;;5028827;28;20384;-61
2021/01/16 20:29:20;;;;;;;0.20;0.20;;;;;;;;;;5025019;28;20032;-61
2021/01/16 20:31:47;;;;;;;0.10;0.10;;;;;;;;;;5020255;28;20033;-60
2021/01/16 20:34:13;;;;;;;0.10;0.10;;;;;;;;;;5016731;28;20025;-61
2021/01/16 20:36:39;;;;;;;0.10;0.10;;;;;;;;;;5024886;28;20037;-61
2021/01/16 20:39:06;;;;;;;0.10;0.10;;;;;;;;;;5027451;28;20068;-61
2021/01/16 20:41:33;;;;;;;0.10;0.10;;;;;;;;;;5025845;28;20042;-61
2021/01/16 20:43:59;;;;;;;0.10;0.10;;;;;;;;;;5024993;28;20029;-61
2021/01/16 20:46:25;;;;;;;0.10;0.10;;;;;;;;;;5025086;28;20616;-61
2021/01/16 20:48:51;;;;;;;0.30;0.30;;;;;;;;;;5024955;28;20029;-61
2021/01/16 20:51:18;;;;;;;0.45;0.45;;;;;;;;;;5022997;28;20033;-59
2021/01/16 20:53:44;;;;;;;0.17;0.17;;;;;;;;;;5026406;28;20025;-57
2021/01/16 20:56:13;;;;;;;1.80;0.55;;;;;;;;;;5025088;28;20368;-58
2021/01/16 20:58:39;;;;;;;0.10;0.10;;;;;;;;;;5024784;28;20402;-59